createdAt,value
2023-03-03T00:00:04.125Z,84.59
2023-03-03T00:01:04.080Z,83.65
2023-03-03T00:02:03.872Z,82.78
2023-03-03T00:03:04.215Z,82.15
2023-03-03T00:04:04.164Z,81.95
2023-03-03T00:05:04.198Z,82.46
2023-03-03T00:06:03.551Z,82.67
2023-03-03T00:07:04.394Z,82.26
2023-03-03T00:08:03.857Z,82.29
2023-03-03T00:09:04.169Z,82.29
2023-03-03T00:10:04.174Z,81.87
2023-03-03T00:11:04.268Z,81.35
2023-03-03T00:12:03.436Z,81.35
2023-03-03T00:13:04.158Z,81.15
2023-03-03T00:14:03.546Z,80.73
2023-03-03T00:15:03.590Z,80.62
2023-03-03T00:16:03.793Z,81.67
2023-03-03T00:17:03.504Z,81.67
2023-03-03T00:18:03.757Z,82.96
2023-03-03T00:19:03.966Z,84.11
2023-03-03T00:20:04.037Z,85.30
2023-03-03T00:21:04.154Z,85.72
2023-03-03T00:22:03.549Z,86.04
2023-03-03T00:23:03.794Z,86.24
2023-03-03T00:24:03.961Z,86.35
2023-03-03T00:25:04.029Z,86.55
2023-03-03T00:26:03.862Z,85.93
2023-03-03T00:27:04.469Z,85.51
2023-03-03T00:28:03.882Z,85.61
2023-03-03T00:29:04.114Z,85.05
2023-03-03T00:30:04.158Z,84.32
2023-03-03T00:31:04.005Z,84.11
2023-03-03T00:32:03.782Z,84.74
2023-03-03T00:33:03.126Z,84.95
2023-03-03T00:34:03.503Z,85.09
2023-03-03T00:35:03.663Z,85.82
2023-03-03T00:36:03.181Z,86.14
2023-03-03T00:37:03.193Z,85.61
2023-03-03T00:38:03.661Z,85.19
2023-03-03T00:39:03.814Z,84.56
2023-03-03T00:40:03.762Z,84.25
2023-03-03T00:41:03.834Z,84.25
2023-03-03T00:42:03.240Z,84.88
2023-03-03T00:43:03.741Z,85.61
2023-03-03T00:44:03.490Z,86.14
2023-03-03T00:45:03.749Z,86.24
2023-03-03T00:46:03.758Z,85.41
2023-03-03T00:47:03.846Z,85.82
2023-03-03T00:48:04.213Z,86.04
2023-03-03T00:49:03.768Z,86.45
2023-03-03T00:50:04.067Z,85.93
2023-03-03T00:51:03.937Z,85.61
2023-03-03T00:52:03.240Z,85.93
2023-03-03T00:53:03.146Z,86.14
2023-03-03T00:54:03.525Z,85.51
2023-03-03T00:55:03.458Z,85.97
2023-03-03T00:56:03.583Z,86.07
2023-03-03T00:57:03.380Z,85.61
2023-03-03T00:58:03.712Z,84.99
2023-03-03T00:59:03.819Z,85.41
2023-03-03T01:00:03.238Z,86.14
2023-03-03T01:01:03.343Z,85.30
2023-03-03T01:02:04.683Z,84.99
2023-03-03T01:03:04.799Z,84.88
2023-03-03T01:04:04.927Z,84.78
2023-03-03T01:05:04.303Z,83.62
2023-03-03T01:06:04.583Z,82.89
2023-03-03T01:07:03.687Z,84.05
2023-03-03T01:08:03.601Z,85.09
2023-03-03T01:09:04.038Z,84.56
2023-03-03T01:10:04.147Z,83.52
2023-03-03T01:11:03.596Z,83.52
2023-03-03T01:12:04.466Z,83.45
2023-03-03T01:13:04.445Z,84.61
2023-03-03T01:14:04.149Z,85.75
2023-03-03T01:15:03.911Z,86.63
2023-03-03T01:16:04.037Z,86.49
2023-03-03T01:17:04.281Z,85.86
2023-03-03T01:18:04.269Z,85.75
2023-03-03T01:19:04.202Z,84.71
2023-03-03T01:20:04.668Z,84.92
2023-03-03T01:21:04.401Z,85.02
2023-03-03T01:22:03.509Z,85.34
2023-03-03T01:23:03.586Z,84.81
2023-03-03T01:24:03.686Z,84.19
2023-03-03T01:25:03.808Z,83.66
2023-03-03T01:26:03.510Z,85.13
2023-03-03T01:27:03.901Z,86.80
2023-03-03T01:28:03.586Z,84.92
2023-03-03T01:29:03.604Z,84.81
2023-03-03T01:30:03.501Z,84.29
2023-03-03T01:31:03.581Z,84.29
2023-03-03T01:32:03.770Z,83.35
2023-03-03T01:33:03.799Z,82.82
2023-03-03T01:34:04.230Z,84.85
2023-03-03T01:35:04.316Z,87.05
2023-03-03T01:36:03.722Z,87.33
2023-03-03T01:37:03.901Z,87.74
2023-03-03T01:38:03.928Z,85.97
2023-03-03T01:39:04.404Z,84.29
2023-03-03T01:40:03.866Z,83.87
2023-03-03T01:41:03.907Z,84.08
2023-03-03T01:42:03.935Z,83.77
2023-03-03T01:43:03.961Z,83.87
2023-03-03T01:44:03.967Z,84.85
2023-03-03T01:45:04.486Z,86.43
2023-03-03T01:46:03.828Z,87.62
2023-03-03T01:47:04.099Z,88.81
2023-03-03T01:48:04.265Z,88.92
2023-03-03T01:49:04.302Z,88.60
2023-03-03T01:50:04.311Z,88.49
2023-03-03T01:51:04.181Z,88.92
2023-03-03T01:52:03.238Z,88.81
2023-03-03T01:53:03.672Z,88.71
2023-03-03T01:54:03.806Z,88.14
2023-03-03T01:55:03.798Z,86.88
2023-03-03T01:56:03.814Z,86.88
2023-03-03T01:57:03.830Z,87.13
2023-03-03T01:58:03.784Z,87.13
2023-03-03T01:59:04.084Z,87.13
2023-03-03T02:00:04.133Z,86.40
2023-03-03T02:01:04.286Z,86.25
2023-03-03T02:02:04.042Z,86.25
2023-03-03T02:03:04.269Z,85.10
2023-03-03T02:04:03.891Z,84.47
2023-03-03T02:05:03.803Z,84.79
2023-03-03T02:06:03.860Z,85.03
2023-03-03T02:07:04.537Z,86.19
2023-03-03T02:08:04.826Z,86.92
2023-03-03T02:09:04.494Z,87.76
2023-03-03T02:10:04.389Z,87.76
2023-03-03T02:11:04.668Z,87.13
2023-03-03T02:12:03.887Z,87.13
2023-03-03T02:13:04.197Z,86.82
2023-03-03T02:14:03.839Z,86.51
2023-03-03T02:15:03.888Z,87.13
2023-03-03T02:16:03.810Z,87.34
2023-03-03T02:17:03.920Z,87.76
2023-03-03T02:18:04.247Z,88.49
2023-03-03T02:19:04.258Z,89.02
2023-03-03T02:20:04.017Z,88.49
2023-03-03T02:21:03.722Z,88.39
2023-03-03T02:22:04.611Z,88.29
2023-03-03T02:23:04.670Z,88.07
2023-03-03T02:24:04.370Z,87.24
2023-03-03T02:25:04.475Z,87.55
2023-03-03T02:26:04.532Z,88.07
2023-03-03T02:27:03.721Z,88.71
2023-03-03T02:28:03.633Z,89.37
2023-03-03T02:29:03.989Z,90.00
2023-03-03T02:30:03.989Z,90.42
2023-03-03T02:31:03.991Z,90.42
2023-03-03T02:32:04.497Z,90.53
2023-03-03T02:33:04.350Z,90.53
2023-03-03T02:34:04.456Z,90.95
2023-03-03T02:35:04.725Z,89.75
2023-03-03T02:36:04.128Z,89.02
2023-03-03T02:37:03.477Z,89.06
2023-03-03T02:38:03.632Z,88.39
2023-03-03T02:39:03.605Z,87.45
2023-03-03T02:40:03.560Z,86.61
2023-03-03T02:41:03.236Z,86.19
2023-03-03T02:42:03.993Z,86.76
2023-03-03T02:43:03.592Z,86.51
2023-03-03T02:44:03.920Z,85.98
2023-03-03T02:45:03.985Z,86.08
2023-03-03T02:46:04.017Z,86.08
2023-03-03T02:47:03.898Z,86.86
2023-03-03T02:48:04.246Z,88.37
2023-03-03T02:49:03.834Z,89.10
2023-03-03T02:50:03.999Z,89.31
2023-03-03T02:51:04.073Z,88.54
2023-03-03T02:52:04.101Z,88.12
2023-03-03T02:53:04.148Z,87.59
2023-03-03T02:54:04.187Z,86.65
2023-03-03T02:55:04.212Z,85.71
2023-03-03T02:56:04.586Z,84.97
2023-03-03T02:57:03.702Z,84.76
2023-03-03T02:58:03.216Z,85.08
2023-03-03T02:59:03.291Z,85.49
2023-03-03T03:00:03.204Z,86.37
2023-03-03T03:01:03.885Z,87.63
2023-03-03T03:02:03.577Z,88.93
2023-03-03T03:03:03.627Z,89.35
2023-03-03T03:04:04.113Z,89.00
2023-03-03T03:05:03.497Z,88.47
2023-03-03T03:06:03.541Z,88.47
2023-03-03T03:07:04.045Z,87.95
2023-03-03T03:08:04.254Z,87.74
2023-03-03T03:09:04.612Z,88.47
2023-03-03T03:10:03.958Z,88.57
2023-03-03T03:11:04.231Z,87.21
2023-03-03T03:12:04.324Z,87.21
2023-03-03T03:13:04.488Z,88.20
2023-03-03T03:14:03.903Z,88.93
2023-03-03T03:15:03.833Z,88.89
2023-03-03T03:16:04.363Z,87.74
2023-03-03T03:17:04.283Z,87.63
2023-03-03T03:18:04.334Z,87.21
2023-03-03T03:19:04.545Z,86.79
2023-03-03T03:20:04.049Z,86.58
2023-03-03T03:21:04.312Z,86.37
2023-03-03T03:22:03.618Z,86.58
2023-03-03T03:23:03.970Z,86.90
2023-03-03T03:24:03.833Z,86.06
2023-03-03T03:25:03.765Z,85.42
2023-03-03T03:26:03.624Z,86.52
2023-03-03T03:27:04.584Z,87.11
2023-03-03T03:28:03.979Z,85.64
2023-03-03T03:29:04.320Z,85.22
2023-03-03T03:30:04.399Z,84.80
2023-03-03T03:31:04.099Z,84.38
2023-03-03T03:32:04.535Z,85.25
2023-03-03T03:33:04.162Z,86.41
2023-03-03T03:34:04.456Z,87.04
2023-03-03T03:35:04.630Z,87.15
2023-03-03T03:36:04.224Z,86.20
2023-03-03T03:37:04.223Z,85.47
2023-03-03T03:38:03.654Z,86.41
2023-03-03T03:39:03.773Z,87.46
2023-03-03T03:40:03.829Z,87.88
2023-03-03T03:41:04.138Z,87.88
2023-03-03T03:42:03.809Z,87.99
2023-03-03T03:43:03.823Z,87.99
2023-03-03T03:44:04.274Z,88.66
2023-03-03T03:45:04.108Z,88.55
2023-03-03T03:46:04.276Z,88.34
2023-03-03T03:47:04.542Z,87.92
2023-03-03T03:48:04.045Z,88.87
2023-03-03T03:49:04.075Z,89.39
2023-03-03T03:50:04.495Z,90.34
2023-03-03T03:51:04.154Z,90.55
2023-03-03T03:52:03.438Z,90.66
2023-03-03T03:53:03.583Z,91.07
2023-03-03T03:54:03.414Z,90.44
2023-03-03T03:55:03.540Z,89.07
2023-03-03T03:56:03.582Z,89.07
2023-03-03T03:57:03.869Z,89.81
2023-03-03T03:58:04.096Z,91.07
2023-03-03T03:59:03.851Z,90.55
2023-03-03T04:00:03.981Z,89.29
2023-03-03T04:01:04.108Z,88.24
2023-03-03T04:02:03.862Z,87.19
2023-03-03T04:03:03.837Z,86.98
2023-03-03T04:04:03.974Z,87.19
2023-03-03T04:05:04.053Z,86.98
2023-03-03T04:06:03.779Z,86.24
2023-03-03T04:07:04.562Z,85.93
2023-03-03T04:08:03.929Z,87.29
2023-03-03T04:09:04.505Z,89.12
2023-03-03T04:10:03.985Z,90.53
2023-03-03T04:11:04.121Z,90.94
2023-03-03T04:12:03.455Z,90.59
2023-03-03T04:13:03.564Z,89.43
2023-03-03T04:14:03.707Z,88.70
2023-03-03T04:15:03.658Z,88.28
2023-03-03T04:16:03.697Z,88.38
2023-03-03T04:17:04.159Z,89.12
2023-03-03T04:18:03.632Z,90.17
2023-03-03T04:19:04.010Z,88.70
2023-03-03T04:20:04.034Z,87.12
2023-03-03T04:21:03.678Z,86.38
2023-03-03T04:22:04.018Z,86.07
2023-03-03T04:23:04.377Z,87.33
2023-03-03T04:24:04.461Z,89.05
2023-03-03T04:25:04.543Z,90.00
2023-03-03T04:26:04.594Z,90.53
2023-03-03T04:27:03.021Z,91.26
2023-03-03T04:28:05.520Z,91.83
2023-03-03T04:29:03.311Z,92.04
2023-03-03T04:30:03.339Z,92.35
2023-03-03T04:31:03.077Z,92.35
2023-03-03T04:32:03.755Z,91.68
2023-03-03T04:33:03.324Z,90.73
2023-03-03T04:34:03.912Z,90.11
2023-03-03T04:35:08.270Z,89.26
2023-03-03T04:36:03.614Z,88.84
2023-03-03T04:37:03.921Z,88.00
2023-03-03T04:38:04.075Z,88.42
2023-03-03T04:39:04.304Z,89.05
2023-03-03T04:40:04.283Z,89.05
2023-03-03T04:41:03.729Z,89.69
2023-03-03T04:42:04.316Z,90.63
2023-03-03T04:43:03.760Z,90.94
2023-03-03T04:44:04.066Z,91.16
2023-03-03T04:45:04.377Z,91.58
2023-03-03T04:46:03.869Z,90.21
2023-03-03T04:47:03.066Z,89.26
2023-03-03T04:48:03.573Z,88.95
2023-03-03T04:49:03.090Z,88.53
2023-03-03T04:50:03.035Z,88.42
2023-03-03T04:51:03.355Z,88.53
2023-03-03T04:52:03.526Z,89.09
2023-03-03T04:53:03.990Z,90.67
2023-03-03T04:54:03.862Z,91.62
2023-03-03T04:55:03.493Z,92.14
2023-03-03T04:56:03.654Z,91.78
2023-03-03T04:57:03.166Z,90.94
2023-03-03T04:58:03.333Z,90.53
2023-03-03T04:59:03.413Z,89.89
2023-03-03T05:00:03.367Z,89.05
2023-03-03T05:01:03.503Z,90.04
2023-03-03T05:02:04.468Z,91.62
2023-03-03T05:03:05.037Z,92.82
2023-03-03T05:04:04.745Z,93.34
2023-03-03T05:05:04.854Z,93.03
2023-03-03T05:06:04.542Z,93.34
2023-03-03T05:07:03.797Z,93.34
2023-03-03T05:08:03.904Z,92.82
2023-03-03T05:09:03.651Z,92.82
2023-03-03T05:10:03.680Z,92.92
2023-03-03T05:11:03.764Z,92.67
2023-03-03T05:12:03.814Z,92.25
2023-03-03T05:13:03.960Z,92.04
2023-03-03T05:14:04.103Z,90.88
2023-03-03T05:15:04.196Z,90.46
2023-03-03T05:16:04.265Z,89.94
2023-03-03T05:17:04.320Z,90.14
2023-03-03T05:18:04.493Z,91.09
2023-03-03T05:19:04.338Z,92.04
2023-03-03T05:20:04.689Z,90.56
2023-03-03T05:21:04.801Z,88.99
2023-03-03T05:22:03.998Z,88.67
2023-03-03T05:23:04.255Z,89.30
2023-03-03T05:24:03.887Z,90.46
2023-03-03T05:25:03.954Z,90.92
2023-03-03T05:26:03.924Z,91.24
2023-03-03T05:27:04.105Z,91.09
2023-03-03T05:28:04.686Z,91.03
2023-03-03T05:29:04.288Z,91.09
2023-03-03T05:30:04.401Z,90.67
2023-03-03T05:31:04.196Z,89.83
2023-03-03T05:32:04.577Z,89.62
2023-03-03T05:33:04.675Z,90.14
2023-03-03T05:34:04.063Z,90.04
2023-03-03T05:35:04.474Z,90.40
2023-03-03T05:36:04.634Z,90.19
2023-03-03T05:37:03.790Z,89.87
2023-03-03T05:38:05.485Z,89.41
2023-03-03T05:39:04.071Z,88.99
2023-03-03T05:40:03.999Z,88.25
2023-03-03T05:41:03.500Z,88.25
2023-03-03T05:42:04.062Z,88.35
2023-03-03T05:43:04.148Z,88.25
2023-03-03T05:44:03.964Z,89.03
2023-03-03T05:45:03.845Z,89.66
2023-03-03T05:46:03.864Z,90.82
2023-03-03T05:47:03.725Z,91.45
2023-03-03T05:48:03.844Z,91.35
2023-03-03T05:49:03.821Z,90.71
2023-03-03T05:50:03.591Z,90.65
2023-03-03T05:51:04.087Z,91.17
2023-03-03T05:52:03.814Z,91.55
2023-03-03T05:53:03.889Z,91.35
2023-03-03T05:54:03.985Z,90.61
2023-03-03T05:55:03.457Z,90.86
2023-03-03T05:56:03.898Z,91.28
2023-03-03T05:57:03.601Z,90.82
2023-03-03T05:58:03.984Z,90.19
2023-03-03T05:59:04.141Z,89.66
2023-03-03T06:00:04.232Z,89.14
2023-03-03T06:01:03.887Z,88.71
2023-03-03T06:02:04.110Z,88.29
2023-03-03T06:03:04.328Z,88.82
2023-03-03T06:04:03.804Z,90.01
2023-03-03T06:05:03.714Z,90.97
2023-03-03T06:06:03.955Z,91.17
2023-03-03T06:07:04.124Z,90.82
2023-03-03T06:08:04.173Z,90.65
2023-03-03T06:09:04.151Z,90.86
2023-03-03T06:10:04.302Z,91.03
2023-03-03T06:11:03.836Z,90.71
2023-03-03T06:12:03.995Z,90.97
2023-03-03T06:13:03.478Z,91.70
2023-03-03T06:14:03.663Z,92.33
2023-03-03T06:15:03.592Z,92.65
2023-03-03T06:16:03.463Z,91.81
2023-03-03T06:17:03.430Z,91.81
2023-03-03T06:18:03.956Z,92.44
2023-03-03T06:19:03.514Z,92.96
2023-03-03T06:20:03.549Z,93.38
2023-03-03T06:21:03.831Z,93.28
2023-03-03T06:22:04.365Z,92.82
2023-03-03T06:23:04.332Z,91.97
2023-03-03T06:24:04.254Z,92.19
2023-03-03T06:25:04.420Z,92.29
2023-03-03T06:26:04.370Z,91.87
2023-03-03T06:27:04.640Z,91.66
2023-03-03T06:28:04.692Z,91.55
2023-03-03T06:29:04.273Z,91.87
2023-03-03T06:30:04.506Z,92.08
2023-03-03T06:31:04.123Z,92.35
2023-03-03T06:32:03.791Z,92.35
2023-03-03T06:33:03.402Z,92.35
2023-03-03T06:34:03.208Z,92.14
2023-03-03T06:35:03.116Z,91.93
2023-03-03T06:36:05.729Z,91.68
2023-03-03T06:37:03.248Z,91.89
2023-03-03T06:38:03.834Z,92.10
2023-03-03T06:39:03.356Z,92.63
2023-03-03T06:40:03.547Z,92.73
2023-03-03T06:41:03.482Z,93.37
2023-03-03T06:42:03.950Z,93.79
2023-03-03T06:43:03.734Z,93.95
2023-03-03T06:44:04.015Z,94.48
2023-03-03T06:45:03.399Z,94.37
2023-03-03T06:46:03.947Z,93.85
2023-03-03T06:47:04.074Z,93.38
2023-03-03T06:48:04.109Z,92.76
2023-03-03T06:49:03.563Z,92.86
2023-03-03T06:50:04.211Z,92.76
2023-03-03T06:51:04.110Z,92.29
2023-03-03T06:52:03.786Z,91.87
2023-03-03T06:53:04.093Z,91.35
2023-03-03T06:54:03.793Z,91.56
2023-03-03T06:55:03.961Z,92.08
2023-03-03T06:56:03.827Z,92.46
2023-03-03T06:57:03.685Z,92.77
2023-03-03T06:58:03.637Z,92.57
2023-03-03T06:59:04.280Z,92.77
2023-03-03T07:00:03.993Z,93.30
2023-03-03T07:01:03.761Z,93.40
2023-03-03T07:02:04.280Z,93.40
2023-03-03T07:03:04.242Z,92.83
2023-03-03T07:04:04.499Z,92.63
2023-03-03T07:05:04.179Z,93.05
2023-03-03T07:06:06.194Z,92.90
2023-03-03T07:07:03.680Z,92.58
2023-03-03T07:08:03.808Z,91.96
2023-03-03T07:09:03.646Z,91.96
2023-03-03T07:10:03.745Z,91.53
2023-03-03T07:11:03.852Z,91.18
2023-03-03T07:12:03.926Z,90.97
2023-03-03T07:13:04.317Z,90.55
2023-03-03T07:14:04.041Z,89.82
2023-03-03T07:15:04.327Z,90.09
2023-03-03T07:16:04.366Z,91.03
2023-03-03T07:17:03.371Z,91.14
2023-03-03T07:18:03.167Z,91.24
2023-03-03T07:19:03.345Z,91.66
2023-03-03T07:20:03.488Z,91.56
2023-03-03T07:21:03.683Z,91.09
2023-03-03T07:22:03.471Z,90.58
2023-03-03T07:23:03.652Z,90.89
2023-03-03T07:24:03.918Z,91.52
2023-03-03T07:25:03.564Z,92.25
2023-03-03T07:26:03.540Z,92.92
2023-03-03T07:27:04.068Z,93.55
2023-03-03T07:28:04.222Z,93.87
2023-03-03T07:29:04.062Z,93.76
2023-03-03T07:30:04.392Z,94.03
2023-03-03T07:31:04.255Z,93.61
2023-03-03T07:32:03.226Z,93.08
2023-03-03T07:33:03.534Z,92.10
2023-03-03T07:34:03.387Z,91.79
2023-03-03T07:35:03.349Z,91.79
2023-03-03T07:36:03.258Z,91.79
2023-03-03T07:37:03.701Z,91.64
2023-03-03T07:38:03.654Z,91.12
2023-03-03T07:39:03.964Z,90.70
2023-03-03T07:40:03.910Z,90.59
2023-03-03T07:41:03.551Z,90.77
2023-03-03T07:42:02.989Z,90.66
2023-03-03T07:43:03.247Z,90.24
2023-03-03T07:44:03.435Z,90.87
2023-03-03T07:45:03.141Z,90.62
2023-03-03T07:46:03.479Z,90.20
2023-03-03T07:47:03.926Z,89.78
2023-03-03T07:48:03.628Z,90.62
2023-03-03T07:49:03.994Z,90.20
2023-03-03T07:50:03.871Z,90.78
2023-03-03T07:51:03.943Z,89.74
2023-03-03T07:52:04.050Z,88.70
2023-03-03T07:53:04.122Z,88.59
2023-03-03T07:54:03.963Z,88.59
2023-03-03T07:55:03.925Z,88.87
2023-03-03T07:56:04.242Z,88.76
2023-03-03T07:57:03.197Z,88.55
2023-03-03T07:58:02.825Z,88.45
2023-03-03T07:59:03.508Z,88.87
2023-03-03T08:00:03.372Z,89.39
2023-03-03T08:01:03.575Z,89.49
2023-03-03T08:02:04.341Z,89.24
2023-03-03T08:03:04.291Z,89.14
2023-03-03T08:04:04.628Z,89.03
2023-03-03T08:05:05.321Z,88.37
2023-03-03T08:06:04.041Z,87.74
2023-03-03T08:07:04.530Z,88.37
2023-03-03T08:08:04.779Z,89.03
2023-03-03T08:09:04.396Z,89.34
2023-03-03T08:10:04.744Z,89.31
2023-03-03T08:11:04.866Z,89.10
2023-03-03T08:12:04.358Z,88.89
2023-03-03T08:13:04.659Z,88.68
2023-03-03T08:14:04.507Z,88.78
2023-03-03T08:15:04.627Z,89.06
2023-03-03T08:16:04.598Z,88.75
2023-03-03T08:17:04.749Z,88.53
2023-03-03T08:18:04.588Z,88.12
2023-03-03T08:19:04.831Z,88.85
2023-03-03T08:20:04.372Z,88.64
2023-03-03T08:21:04.883Z,89.01
2023-03-03T08:22:04.402Z,89.43
2023-03-03T08:23:04.196Z,88.81
2023-03-03T08:24:04.063Z,88.08
2023-03-03T08:25:04.325Z,87.73
2023-03-03T08:26:03.933Z,87.62
2023-03-03T08:27:04.097Z,88.04
2023-03-03T08:28:04.136Z,87.83
2023-03-03T08:29:04.334Z,87.52
2023-03-03T08:30:04.991Z,86.89
2023-03-03T08:31:16.849Z,86.99
2023-03-03T08:32:04.524Z,86.99
2023-03-03T08:33:04.539Z,87.16
2023-03-03T08:34:04.235Z,88.10
2023-03-03T08:35:04.584Z,88.10
2023-03-03T08:36:04.131Z,88.52
2023-03-03T08:37:04.006Z,87.99
2023-03-03T08:38:03.853Z,86.60
2023-03-03T08:39:04.087Z,86.40
2023-03-03T08:40:04.025Z,86.50
2023-03-03T08:41:03.892Z,86.29
2023-03-03T08:42:03.817Z,86.81
2023-03-03T08:43:03.933Z,87.02
2023-03-03T08:44:03.798Z,87.65
2023-03-03T08:45:04.226Z,87.85
2023-03-03T08:46:04.012Z,88.17
2023-03-03T08:47:03.972Z,87.96
2023-03-03T08:48:06.115Z,87.50
2023-03-03T08:49:04.016Z,88.37
2023-03-03T08:50:04.412Z,89.00
2023-03-03T08:51:03.968Z,89.00
2023-03-03T08:52:04.012Z,88.89
2023-03-03T08:53:04.038Z,89.00
2023-03-03T08:54:04.162Z,88.54
2023-03-03T08:55:04.417Z,88.02
2023-03-03T08:56:04.219Z,87.81
2023-03-03T08:57:03.789Z,87.50
2023-03-03T08:58:03.469Z,87.56
2023-03-03T08:59:03.744Z,87.35
2023-03-03T09:00:03.589Z,87.25
2023-03-03T09:01:03.369Z,87.56
2023-03-03T09:02:04.189Z,88.19
2023-03-03T09:03:04.422Z,88.19
2023-03-03T09:04:04.100Z,88.19
2023-03-03T09:05:04.147Z,88.40
2023-03-03T09:06:03.930Z,88.64
2023-03-03T09:07:04.635Z,88.64
2023-03-03T09:08:04.500Z,88.85
2023-03-03T09:09:04.677Z,88.71
2023-03-03T09:10:04.560Z,88.71
2023-03-03T09:11:04.466Z,88.50
2023-03-03T09:12:04.684Z,88.29
2023-03-03T09:13:04.910Z,88.40
2023-03-03T09:14:04.516Z,88.50
2023-03-03T09:15:04.548Z,88.15
2023-03-03T09:16:04.787Z,87.73
2023-03-03T09:17:04.344Z,87.42
2023-03-03T09:18:04.516Z,87.84
2023-03-03T09:19:04.069Z,88.25
2023-03-03T09:20:04.284Z,88.25
2023-03-03T09:21:03.868Z,88.04
2023-03-03T09:22:04.534Z,87.94
2023-03-03T09:23:04.399Z,87.79
2023-03-03T09:24:04.944Z,87.69
2023-03-03T09:25:04.347Z,87.59
2023-03-03T09:26:04.292Z,87.94
2023-03-03T09:27:04.015Z,87.69
2023-03-03T09:28:03.851Z,87.73
2023-03-03T09:29:03.786Z,87.59
2023-03-03T09:30:03.949Z,87.38
2023-03-03T09:31:07.131Z,87.27
2023-03-03T09:32:04.808Z,87.42
2023-03-03T09:33:04.892Z,87.73
2023-03-03T09:34:04.642Z,87.84
2023-03-03T09:42:03.993Z,86.86
2023-03-03T09:43:04.363Z,86.61
2023-03-03T09:44:04.282Z,86.51
2023-03-03T09:45:04.405Z,86.09
2023-03-03T09:46:04.250Z,85.99
2023-03-03T09:47:04.383Z,86.19
2023-03-03T09:48:04.598Z,86.19
2023-03-03T09:49:04.169Z,86.16
2023-03-03T09:50:04.235Z,86.09
2023-03-03T09:51:04.389Z,86.51
2023-03-03T09:52:03.133Z,86.51
2023-03-03T09:53:04.454Z,86.61
2023-03-03T09:54:04.660Z,86.26
2023-03-03T09:55:04.856Z,86.47
2023-03-03T09:56:04.413Z,86.36
2023-03-03T09:57:04.231Z,86.16
2023-03-03T09:58:10.446Z,86.16
2023-03-03T09:59:02.484Z,86.05
2023-03-03T10:00:02.524Z,85.99
2023-03-03T10:01:02.927Z,86.09
2023-03-03T10:02:04.881Z,86.41
2023-03-03T10:03:02.972Z,86.30
2023-03-03T10:04:02.777Z,86.55
2023-03-03T10:05:03.033Z,86.65
2023-03-03T10:06:03.980Z,86.72
2023-03-03T10:07:02.536Z,86.61
2023-03-03T10:08:02.582Z,86.41
2023-03-03T10:09:04.344Z,86.41
2023-03-03T10:10:02.799Z,86.51
2023-03-03T10:11:02.575Z,86.41
2023-03-03T10:12:03.255Z,86.51
2023-03-03T10:13:03.303Z,86.30
2023-03-03T10:14:03.519Z,86.51
2023-03-03T10:15:03.035Z,86.26
2023-03-03T10:16:04.170Z,86.19
2023-03-03T10:17:03.244Z,86.19
2023-03-03T10:18:03.086Z,86.30
2023-03-03T10:19:03.171Z,85.99
2023-03-03T10:20:03.045Z,85.78
2023-03-03T10:21:03.277Z,86.19
2023-03-03T10:22:02.921Z,86.51
2023-03-03T10:23:02.908Z,86.41
2023-03-03T10:24:02.685Z,86.30
2023-03-03T10:25:02.759Z,86.51
2023-03-03T10:26:02.512Z,86.30
2023-03-03T10:27:13.401Z,86.41
2023-03-03T10:28:02.867Z,86.09
2023-03-03T10:29:02.839Z,86.09
2023-03-03T10:30:02.808Z,86.44
2023-03-03T10:31:09.200Z,86.96
2023-03-03T10:32:03.282Z,87.13
2023-03-03T10:33:03.217Z,87.03
2023-03-03T10:34:03.140Z,86.78
2023-03-03T10:35:02.678Z,86.05
2023-03-03T10:36:07.455Z,85.95
2023-03-03T10:37:02.876Z,85.95
2023-03-03T10:38:02.888Z,86.16
2023-03-03T10:39:02.943Z,86.16
2023-03-03T10:40:02.861Z,86.05
2023-03-03T10:41:03.114Z,85.95
2023-03-03T10:42:02.264Z,85.85
2023-03-03T10:43:02.762Z,85.64
2023-03-03T10:44:03.011Z,85.60
2023-03-03T10:45:03.116Z,85.29
2023-03-03T10:46:03.331Z,85.50
2023-03-03T10:47:03.089Z,85.39
2023-03-03T10:48:03.043Z,85.60
2023-03-03T10:49:02.934Z,84.67
2023-03-03T10:50:02.679Z,84.98
2023-03-03T10:51:02.883Z,84.67
2023-03-03T10:52:03.398Z,85.29
2023-03-03T10:53:03.305Z,85.50
2023-03-03T10:54:03.056Z,84.98
2023-03-03T10:55:02.970Z,84.46
2023-03-03T10:56:03.242Z,85.19
2023-03-03T10:57:02.506Z,85.14
2023-03-03T10:58:02.239Z,85.04
2023-03-03T10:59:02.396Z,84.48
2023-03-03T11:00:02.803Z,84.17
2023-03-03T11:01:02.643Z,83.76
2023-03-03T11:02:03.098Z,83.65
2023-03-03T11:03:02.445Z,83.34
2023-03-03T11:04:02.852Z,83.34
2023-03-03T11:05:02.502Z,83.34
2023-03-03T11:06:02.855Z,83.45
2023-03-03T11:07:05.880Z,83.20
2023-03-03T11:08:02.435Z,83.10
2023-03-03T11:09:02.388Z,83.00
2023-03-03T11:10:02.093Z,83.10
2023-03-03T11:11:02.680Z,83.00
2023-03-03T11:12:02.786Z,82.58
2023-03-03T11:13:03.079Z,82.48
2023-03-03T11:14:03.220Z,82.58
2023-03-03T11:15:03.267Z,82.68
2023-03-03T11:16:02.935Z,82.68
2023-03-03T11:17:03.449Z,82.48
2023-03-03T11:18:02.922Z,81.85
2023-03-03T11:19:03.562Z,82.17
2023-03-03T11:20:03.274Z,82.79
2023-03-03T11:21:02.989Z,83.00
2023-03-03T11:22:02.078Z,82.37
2023-03-03T11:23:02.293Z,82.58
2023-03-03T11:24:02.340Z,82.58
2023-03-03T11:25:02.383Z,82.13
2023-03-03T11:26:02.492Z,81.85
2023-03-03T11:27:02.489Z,81.96
2023-03-03T11:28:02.742Z,81.96
2023-03-03T11:29:03.000Z,81.75
2023-03-03T11:30:02.547Z,81.96
2023-03-03T11:31:02.778Z,82.48
2023-03-03T11:32:02.663Z,82.58
2023-03-03T11:33:03.154Z,82.27
2023-03-03T11:34:03.008Z,82.75
2023-03-03T11:35:03.258Z,82.65
2023-03-03T11:36:03.224Z,82.34
2023-03-03T11:37:02.354Z,82.13
2023-03-03T11:38:02.769Z,81.68
2023-03-03T11:39:02.676Z,82.09
2023-03-03T11:40:02.927Z,81.99
2023-03-03T11:41:02.531Z,81.47
2023-03-03T11:42:02.043Z,80.95
2023-03-03T11:43:01.889Z,80.43
2023-03-03T11:44:02.072Z,80.85
2023-03-03T11:45:02.014Z,81.33
2023-03-03T11:46:02.392Z,81.12
2023-03-03T11:47:02.477Z,79.77
2023-03-03T11:48:02.352Z,79.88
2023-03-03T11:49:02.418Z,80.40
2023-03-03T11:50:02.957Z,80.19
2023-03-03T11:51:02.587Z,80.81
2023-03-03T11:52:02.520Z,80.19
2023-03-03T11:53:02.630Z,80.08
2023-03-03T11:54:02.599Z,80.29
2023-03-03T11:55:02.885Z,80.08
2023-03-03T11:56:02.821Z,80.71
2023-03-03T11:57:02.795Z,80.57
2023-03-03T11:58:02.702Z,80.57
2023-03-03T11:59:03.224Z,79.70
2023-03-03T12:00:03.153Z,79.39
2023-03-03T12:01:04.161Z,79.19
2023-03-03T12:02:02.283Z,79.29
2023-03-03T12:03:02.339Z,79.66
2023-03-03T12:04:02.744Z,78.42
2023-03-03T12:05:02.481Z,78.94
2023-03-03T12:06:02.225Z,78.49
2023-03-03T12:07:12.979Z,78.08
2023-03-03T12:08:02.879Z,78.18
2023-03-03T12:09:02.950Z,79.01
2023-03-03T12:10:02.901Z,78.05
2023-03-03T12:11:03.017Z,77.73
2023-03-03T12:12:02.456Z,77.80
2023-03-03T12:13:02.480Z,77.59
2023-03-03T12:14:02.495Z,77.87
2023-03-03T12:15:02.733Z,77.15
2023-03-03T12:16:02.753Z,75.18
2023-03-03T12:17:03.022Z,75.81
2023-03-03T12:18:02.936Z,75.18
2023-03-03T12:19:02.752Z,74.77
2023-03-03T12:20:03.040Z,74.36
2023-03-03T12:21:02.766Z,74.57
2023-03-03T12:22:02.873Z,74.57
2023-03-03T12:23:06.973Z,74.63
2023-03-03T12:24:04.764Z,74.12
2023-03-03T12:25:03.175Z,74.12
2023-03-03T12:26:03.046Z,74.53
2023-03-03T12:27:02.406Z,73.81
2023-03-03T12:28:02.683Z,74.43
2023-03-03T12:29:02.088Z,74.43
2023-03-03T12:30:04.945Z,74.08
2023-03-03T12:31:02.405Z,74.50
2023-03-03T12:32:02.668Z,74.26
2023-03-03T12:33:02.199Z,72.96
2023-03-03T12:34:02.362Z,73.16
2023-03-03T12:35:02.513Z,73.23
2023-03-03T12:36:02.963Z,73.33
2023-03-03T12:37:02.862Z,72.78
2023-03-03T12:38:02.868Z,72.06
2023-03-03T12:39:02.724Z,73.06
2023-03-03T12:40:02.807Z,72.75
2023-03-03T12:41:03.020Z,71.69
2023-03-03T12:42:04.417Z,70.86
2023-03-03T12:43:02.335Z,71.69
2023-03-03T12:44:01.950Z,71.28
2023-03-03T12:45:02.594Z,70.35
2023-03-03T12:46:02.302Z,70.73
2023-03-03T12:47:02.729Z,70.21
2023-03-03T12:48:02.799Z,70.01
2023-03-03T12:49:02.551Z,70.62
2023-03-03T12:50:07.467Z,69.70
2023-03-03T12:51:02.795Z,69.77
2023-03-03T12:52:02.292Z,70.28
2023-03-03T12:53:02.876Z,69.23
2023-03-03T12:54:01.905Z,69.53
2023-03-03T12:55:02.381Z,69.29
2023-03-03T12:56:02.203Z,68.88
2023-03-03T12:57:02.929Z,68.68
2023-03-03T12:58:02.547Z,68.48
2023-03-03T12:59:02.616Z,68.24